createdAt,value
2018-03-22T00:01:09.524Z,21.35
2018-03-22T00:03:37.592Z,24.25
2018-03-22T00:06:05.765Z,24.17
2018-03-22T00:08:34.053Z,23.50
2018-03-22T00:11:03.141Z,22.83
2018-03-22T00:13:31.207Z,21.60
2018-03-22T00:16:00.115Z,22.52
2018-03-22T00:18:28.989Z,23.15
2018-03-22T00:20:58.438Z,22.23
2018-03-22T00:23:26.564Z,21.00
2018-03-22T00:25:54.853Z,21.83
2018-03-22T00:28:23.834Z,21.67
2018-03-22T00:30:52.121Z,22.77
2018-03-22T00:33:21.127Z,21.98
2018-03-22T00:35:49.889Z,25.75
2018-03-22T00:38:17.861Z,21.67
2018-03-22T00:40:46.145Z,22.73
2018-03-22T00:43:14.924Z,23.87
2018-03-22T00:45:44.430Z,23.20
2018-03-22T00:48:12.499Z,23.58
2018-03-22T00:50:40.670Z,24.00
2018-03-22T00:53:08.851Z,22.45
2018-03-22T00:55:37.082Z,21.50
2018-03-22T00:58:05.293Z,23.25
2018-03-22T01:00:33.471Z,24.20
2018-03-22T01:03:01.671Z,23.62
2018-03-22T01:05:30.531Z,22.65
2018-03-22T01:07:58.816Z,23.38
2018-03-22T01:10:26.979Z,24.30
2018-03-22T01:12:55.267Z,21.55
2018-03-22T01:15:23.382Z,24.12
2018-03-22T01:17:51.615Z,22.45
2018-03-22T01:20:19.830Z,24.00
2018-03-22T01:22:48.567Z,21.50
2018-03-22T01:25:16.852Z,23.20
2018-03-22T01:27:45.013Z,21.75
2018-03-22T01:30:24.722Z,24.23
2018-03-22T01:32:52.832Z,22.83
2018-03-22T01:35:21.008Z,22.90
2018-03-22T01:37:49.181Z,21.80
2018-03-22T01:40:17.356Z,22.70
2018-03-22T01:42:45.529Z,22.73
2018-03-22T01:45:13.812Z,24.60
2018-03-22T01:47:41.977Z,24.02
2018-03-22T01:50:10.259Z,24.20
2018-03-22T01:52:44.065Z,22.00
2018-03-22T01:55:12.233Z,22.80
2018-03-22T01:57:40.404Z,23.30
2018-03-22T02:00:08.677Z,24.05
2018-03-22T02:02:36.854Z,24.23
2018-03-22T02:05:05.139Z,22.37
2018-03-22T02:07:33.419Z,23.87
2018-03-22T02:10:02.619Z,24.00
2018-03-22T02:12:31.490Z,24.95
2018-03-22T02:14:59.664Z,23.08
2018-03-22T02:17:27.837Z,24.33
2018-03-22T02:19:56.011Z,23.30
2018-03-22T02:22:24.184Z,23.40
2018-03-22T02:24:52.476Z,22.08
2018-03-22T02:27:20.649Z,22.17
2018-03-22T02:29:49.625Z,24.12
2018-03-22T02:32:18.638Z,23.12
2018-03-22T02:34:47.516Z,25.17
2018-03-22T02:37:15.687Z,22.55
2018-03-22T02:39:43.867Z,24.85
2018-03-22T02:42:12.036Z,24.52
2018-03-22T02:44:40.103Z,24.05
2018-03-22T02:47:08.790Z,25.40
2018-03-22T02:49:36.960Z,23.25
2018-03-22T02:52:05.140Z,22.02
2018-03-22T02:54:33.310Z,23.87
2018-03-22T02:57:01.484Z,25.12
2018-03-22T02:59:29.769Z,21.37
2018-03-22T03:01:57.717Z,24.23
2018-03-22T03:04:26.014Z,23.05
2018-03-22T03:06:54.801Z,26.40
2018-03-22T03:09:24.512Z,23.80
2018-03-22T03:11:53.502Z,23.85
2018-03-22T03:14:21.666Z,23.48
2018-03-22T03:16:49.951Z,22.85
2018-03-22T03:19:18.945Z,22.10
2018-03-22T03:21:49.157Z,24.02
2018-03-22T03:24:17.339Z,21.95
2018-03-22T03:26:45.615Z,21.77
2018-03-22T03:29:13.866Z,23.48
2018-03-22T03:31:42.054Z,22.75
2018-03-22T03:34:10.232Z,21.45
2018-03-22T03:36:38.515Z,23.08
2018-03-22T03:39:06.898Z,22.35
2018-03-22T03:41:35.059Z,22.87
2018-03-22T03:44:03.228Z,21.60
2018-03-22T03:46:31.414Z,22.25
2018-03-22T03:48:59.578Z,21.45
2018-03-22T03:51:27.864Z,21.75
2018-03-22T03:53:56.027Z,20.42
2018-03-22T03:56:24.266Z,20.27
2018-03-22T03:58:52.371Z,22.30
2018-03-22T04:01:20.647Z,20.42
2018-03-22T04:03:49.446Z,22.45
2018-03-22T04:06:17.609Z,20.02
2018-03-22T04:08:45.783Z,21.25
2018-03-22T04:11:13.960Z,21.10
2018-03-22T04:13:42.134Z,22.85
2018-03-22T04:16:12.817Z,23.00
2018-03-22T04:18:40.934Z,21.80
2018-03-22T04:21:09.107Z,21.48
2018-03-22T04:23:37.349Z,23.10
2018-03-22T04:26:05.941Z,23.27
2018-03-22T04:28:34.105Z,22.27
2018-03-22T04:31:02.212Z,24.08
2018-03-22T04:33:30.390Z,20.00
2018-03-22T04:35:59.274Z,22.92
2018-03-22T04:38:27.453Z,21.77
2018-03-22T04:40:56.250Z,21.65
2018-03-22T04:43:24.409Z,23.27
2018-03-22T04:45:52.698Z,21.00
2018-03-22T04:48:20.972Z,22.92
2018-03-22T04:50:49.139Z,22.25
2018-03-22T04:53:17.528Z,21.52
2018-03-22T04:55:46.415Z,21.15
2018-03-22T04:58:14.583Z,21.95
2018-03-22T05:00:42.762Z,23.62
2018-03-22T05:03:10.929Z,23.87
2018-03-22T05:05:39.211Z,21.67
2018-03-22T05:08:07.378Z,23.50
2018-03-22T05:10:36.264Z,23.10
2018-03-22T05:13:04.370Z,21.95
2018-03-22T05:15:33.328Z,21.80
2018-03-22T05:18:01.616Z,24.00
2018-03-22T05:20:30.393Z,25.55
2018-03-22T05:22:58.564Z,23.75
2018-03-22T05:25:26.743Z,20.60
2018-03-22T05:27:54.916Z,22.90
2018-03-22T05:30:23.198Z,22.90
2018-03-22T05:32:52.080Z,23.10
2018-03-22T05:35:20.256Z,23.70
2018-03-22T05:37:49.246Z,23.95
2018-03-22T05:40:17.423Z,23.00
2018-03-22T05:42:45.488Z,23.25
2018-03-22T05:45:13.776Z,24.15
2018-03-22T05:47:42.053Z,25.23
2018-03-22T05:50:10.329Z,24.45
2018-03-22T05:52:39.412Z,21.35
2018-03-22T05:55:07.586Z,24.17
2018-03-22T05:57:36.590Z,24.80
2018-03-22T06:00:04.864Z,24.00
2018-03-22T06:02:33.244Z,23.12
2018-03-22T06:05:01.519Z,24.50
2018-03-22T06:07:29.745Z,20.92
2018-03-22T06:09:57.861Z,23.10
2018-03-22T06:12:26.141Z,21.95
2018-03-22T06:14:54.418Z,25.23
2018-03-22T06:17:22.586Z,25.20
2018-03-22T06:19:50.758Z,24.52
2018-03-22T06:22:18.930Z,23.52
2018-03-22T06:24:47.101Z,24.55
2018-03-22T06:27:15.280Z,27.02
2018-03-22T06:29:43.286Z,25.65
2018-03-22T06:32:11.220Z,26.40
2018-03-22T06:34:39.232Z,27.35
2018-03-22T06:37:07.354Z,26.52
2018-03-22T06:39:35.529Z,23.67
2018-03-22T06:42:03.699Z,24.80
2018-03-22T06:44:31.770Z,22.83
2018-03-22T06:46:59.947Z,21.20
2018-03-22T06:49:28.637Z,21.48
2018-03-22T06:51:56.688Z,22.23
2018-03-22T06:54:24.990Z,23.38
2018-03-22T06:56:53.300Z,25.10
2018-03-22T06:59:21.541Z,23.10
2018-03-22T07:01:49.816Z,23.42
2018-03-22T07:04:17.978Z,21.42
2018-03-22T07:06:46.154Z,22.27
2018-03-22T07:09:14.328Z,24.37
2018-03-22T07:11:42.516Z,22.75
2018-03-22T07:14:11.395Z,24.80
2018-03-22T07:16:39.568Z,20.10
2018-03-22T07:19:07.736Z,19.33
2018-03-22T07:21:35.909Z,21.58
2018-03-22T07:24:04.196Z,21.10
2018-03-22T07:26:32.257Z,22.17
2018-03-22T07:29:00.550Z,20.20
2018-03-22T07:31:28.709Z,21.25
2018-03-22T07:33:56.994Z,21.33
2018-03-22T07:36:25.270Z,20.73
2018-03-22T07:38:53.436Z,19.92
2018-03-22T07:41:21.720Z,19.20
2018-03-22T07:43:49.884Z,18.77
2018-03-22T07:46:17.850Z,20.67
2018-03-22T07:48:45.920Z,18.10
2018-03-22T07:51:15.016Z,19.35
2018-03-22T07:53:43.192Z,19.45
2018-03-22T07:56:11.362Z,18.60
2018-03-22T07:58:39.536Z,17.40
2018-03-22T08:01:08.632Z,16.20
2018-03-22T08:03:36.702Z,18.02
2018-03-22T08:06:04.989Z,15.75
2018-03-22T08:08:33.152Z,17.58
2018-03-22T08:11:01.942Z,14.68
2018-03-22T08:13:30.012Z,15.48
2018-03-22T08:15:59.003Z,15.15
2018-03-22T08:18:27.182Z,14.50
2018-03-22T08:20:55.465Z,13.62
2018-03-22T08:23:23.626Z,15.70
2018-03-22T08:25:51.800Z,13.88
2018-03-22T08:28:20.532Z,16.00
2018-03-22T08:30:48.771Z,14.10
2018-03-22T08:33:17.055Z,12.52
2018-03-22T08:35:45.210Z,13.62
2018-03-22T08:38:13.389Z,12.13
2018-03-22T08:40:41.423Z,11.30
2018-03-22T08:43:10.460Z,10.95
2018-03-22T08:45:38.736Z,9.10
2018-03-22T08:48:08.434Z,10.45
2018-03-22T08:50:36.611Z,9.45
2018-03-22T08:53:07.033Z,9.95
2018-03-22T08:55:35.206Z,9.35
2018-03-22T08:58:03.387Z,8.80
2018-03-22T09:00:31.354Z,9.38
2018-03-22T09:02:59.369Z,9.10
2018-03-22T09:05:27.392Z,10.70
2018-03-22T09:07:55.417Z,8.55
2018-03-22T09:10:23.467Z,9.13
2018-03-22T09:12:51.420Z,9.27
2018-03-22T09:15:20.168Z,9.10
2018-03-22T09:17:48.079Z,9.73
2018-03-22T09:20:16.849Z,8.63
2018-03-22T09:22:44.832Z,8.88
2018-03-22T09:25:13.636Z,9.32
2018-03-22T09:27:41.565Z,11.65
2018-03-22T09:30:09.474Z,10.30
2018-03-22T09:32:37.432Z,9.95
2018-03-22T09:35:05.454Z,9.35
2018-03-22T09:37:33.426Z,9.75
2018-03-22T09:40:01.416Z,10.33
2018-03-22T09:42:30.165Z,9.82
2018-03-22T09:44:58.113Z,9.93
2018-03-22T09:47:26.105Z,9.17
2018-03-22T09:49:54.121Z,10.05
2018-03-22T09:52:22.917Z,10.70
2018-03-22T09:54:51.664Z,10.43
2018-03-22T09:57:19.685Z,9.60
2018-03-22T09:59:47.660Z,9.53
2018-03-22T10:02:15.598Z,10.37
2018-03-22T10:04:43.540Z,10.30
2018-03-22T10:07:11.470Z,8.80
2018-03-22T10:09:39.370Z,9.40
2018-03-22T10:12:07.309Z,9.40
2018-03-22T10:14:35.264Z,9.50
2018-03-22T10:17:03.253Z,9.30
2018-03-22T10:19:31.185Z,10.33
2018-03-22T10:21:59.984Z,10.37
2018-03-22T10:24:27.942Z,9.90
2018-03-22T10:26:56.639Z,9.77
2018-03-22T10:29:24.684Z,9.93
2018-03-22T10:31:52.626Z,8.57
2018-03-22T10:34:20.639Z,9.77
2018-03-22T10:36:49.462Z,10.57
2018-03-22T10:39:17.746Z,10.00
2018-03-22T10:41:45.688Z,10.53
2018-03-22T10:44:13.609Z,12.07
2018-03-22T10:46:41.550Z,10.03
2018-03-22T10:49:09.504Z,10.80
2018-03-22T10:51:37.528Z,10.87
2018-03-22T10:54:05.479Z,10.90
2018-03-22T10:56:33.507Z,11.13
2018-03-22T10:59:01.512Z,10.93
2018-03-22T11:01:35.129Z,11.47
2018-03-22T11:04:08.052Z,11.00
2018-03-22T11:06:35.993Z,10.93
2018-03-22T11:09:05.690Z,9.23
2018-03-22T11:11:33.722Z,9.30
2018-03-22T11:14:01.654Z,10.37
2018-03-22T11:16:30.412Z,9.40
2018-03-22T11:18:58.409Z,9.03
2018-03-22T11:21:27.149Z,9.67
2018-03-22T11:23:55.131Z,9.13
2018-03-22T11:26:23.113Z,9.67
2018-03-22T11:28:51.091Z,10.50
2018-03-22T11:31:19.052Z,9.13
2018-03-22T11:33:46.989Z,8.20
2018-03-22T11:36:14.938Z,7.67
2018-03-22T11:38:42.970Z,10.73
2018-03-22T11:41:11.674Z,8.70
2018-03-22T11:43:40.398Z,8.90
2018-03-22T11:46:08.372Z,8.27
2018-03-22T11:48:36.302Z,9.07
2018-03-22T11:51:04.234Z,8.93
2018-03-22T11:53:32.208Z,8.30
2018-03-22T11:56:00.147Z,9.47
2018-03-22T11:58:28.837Z,9.00
2018-03-22T12:00:56.821Z,8.80
2018-03-22T12:03:24.806Z,8.50
2018-03-22T12:05:53.236Z,8.10
2018-03-22T12:08:21.165Z,8.70
2018-03-22T12:10:49.915Z,8.80
2018-03-22T12:13:17.886Z,7.13
2018-03-22T12:15:45.809Z,7.37
2018-03-22T12:18:14.186Z,9.10
2018-03-22T12:20:42.113Z,8.80
2018-03-22T12:23:10.042Z,9.50
2018-03-22T12:25:38.011Z,8.80
2018-03-22T12:28:05.950Z,8.77
2018-03-22T12:30:33.891Z,8.40
2018-03-22T12:33:01.814Z,9.50
2018-03-22T12:35:29.758Z,8.17
2018-03-22T12:38:05.980Z,9.50
2018-03-22T12:40:55.120Z,8.63
2018-03-22T12:43:23.925Z,8.40
2018-03-22T12:45:52.721Z,8.00
2018-03-22T12:48:20.727Z,8.30
2018-03-22T12:50:48.668Z,7.93
2018-03-22T12:53:16.694Z,8.43
2018-03-22T12:55:44.709Z,8.03
2018-03-22T12:58:12.633Z,9.03
2018-03-22T13:00:40.710Z,8.70
2018-03-22T13:03:08.637Z,9.73
2018-03-22T13:05:37.593Z,9.33
2018-03-22T13:08:05.686Z,9.60
2018-03-22T13:10:33.788Z,8.87
2018-03-22T13:13:01.754Z,7.73
2018-03-22T13:15:29.707Z,8.00
2018-03-22T13:17:58.799Z,9.73
2018-03-22T13:20:27.482Z,10.70
2018-03-22T13:22:56.168Z,8.63
2018-03-22T13:25:24.835Z,7.53
2018-03-22T13:27:52.793Z,8.33
2018-03-22T13:30:20.794Z,9.00
2018-03-22T13:32:49.518Z,9.00
2018-03-22T13:35:17.503Z,9.40
2018-03-22T13:37:45.498Z,9.07
2018-03-22T13:40:13.407Z,9.43
2018-03-22T13:42:41.355Z,9.23
2018-03-22T13:45:10.138Z,9.07
2018-03-22T13:47:38.943Z,8.63
2018-03-22T13:50:06.938Z,8.67
2018-03-22T13:52:34.871Z,9.43
2018-03-22T13:55:03.659Z,9.50
2018-03-22T13:57:32.431Z,9.67
2018-03-22T14:00:01.231Z,10.10
2018-03-22T14:02:30.202Z,10.10
2018-03-22T14:04:58.944Z,11.40
2018-03-22T14:07:26.879Z,10.23
2018-03-22T14:09:55.571Z,9.80
2018-03-22T14:12:24.290Z,10.57
2018-03-22T14:14:52.288Z,9.40
2018-03-22T14:17:20.221Z,10.43
2018-03-22T14:19:48.193Z,9.87
2018-03-22T14:22:16.234Z,10.90
2018-03-22T14:24:44.231Z,10.13
2018-03-22T14:27:12.165Z,10.07
2018-03-22T14:29:40.864Z,10.30
2018-03-22T14:32:08.797Z,10.20
2018-03-22T14:34:36.787Z,10.00
2018-03-22T14:37:05.466Z,11.87
2018-03-22T14:39:34.258Z,13.77
2018-03-22T14:42:02.939Z,10.80
2018-03-22T14:44:31.617Z,11.03
2018-03-22T14:47:00.396Z,11.00
2018-03-22T14:49:28.432Z,12.77
2018-03-22T14:51:57.139Z,11.53
2018-03-22T14:54:25.062Z,11.13
2018-03-22T14:56:53.086Z,13.50
2018-03-22T14:59:21.227Z,11.90
2018-03-22T15:01:49.274Z,12.77
2018-03-22T15:04:17.361Z,11.97
2018-03-22T15:06:45.287Z,13.13
2018-03-22T15:09:14.095Z,11.90
2018-03-22T15:11:42.040Z,13.03
2018-03-22T15:14:10.782Z,11.47
2018-03-22T15:16:39.516Z,10.73
2018-03-22T15:19:08.229Z,11.33
2018-03-22T15:21:36.233Z,11.80
2018-03-22T15:24:04.954Z,13.07
2018-03-22T15:26:33.757Z,12.97
2018-03-22T15:29:02.473Z,12.67
2018-03-22T15:31:30.435Z,12.73
2018-03-22T15:33:58.379Z,12.63
2018-03-22T15:36:27.089Z,12.47
2018-03-22T15:38:55.010Z,12.50
2018-03-22T15:41:22.991Z,13.33
2018-03-22T15:43:51.774Z,11.73
2018-03-22T15:46:19.818Z,13.10
2018-03-22T15:48:47.767Z,13.40
2018-03-22T15:51:15.720Z,11.53
2018-03-22T15:53:43.816Z,12.87
2018-03-22T15:56:11.784Z,13.20
2018-03-22T15:58:39.748Z,11.90
2018-03-22T16:01:07.794Z,11.50
2018-03-22T16:03:35.746Z,10.60
2018-03-22T16:06:03.810Z,11.27
2018-03-22T16:08:32.617Z,11.70
2018-03-22T16:11:00.662Z,12.90
2018-03-22T16:13:29.522Z,13.40
2018-03-22T16:15:57.573Z,11.80
2018-03-22T16:18:25.549Z,12.30
2018-03-22T16:20:53.630Z,12.43
2018-03-22T16:23:21.622Z,12.30
2018-03-22T16:25:49.582Z,12.87
2018-03-22T16:28:17.553Z,12.87
2018-03-22T16:30:45.516Z,13.10
2018-03-22T16:33:13.558Z,11.20
2018-03-22T16:35:41.532Z,12.60
2018-03-22T16:38:09.584Z,13.00
2018-03-22T16:40:37.623Z,13.03
2018-03-22T16:43:06.638Z,13.43
2018-03-22T16:45:34.577Z,12.30
2018-03-22T16:48:03.314Z,11.33
2018-03-22T16:50:31.277Z,14.00
2018-03-22T16:52:59.331Z,13.40
2018-03-22T16:55:27.319Z,12.57
2018-03-22T16:57:55.322Z,13.25
2018-03-22T17:02:57.485Z,12.35
2018-03-22T17:05:25.531Z,13.90
2018-03-22T17:07:53.563Z,11.90
2018-03-22T17:10:22.367Z,12.32
2018-03-22T17:12:50.438Z,12.00
2018-03-22T17:15:19.232Z,11.35
2018-03-22T17:17:47.358Z,11.35
2018-03-22T17:20:15.375Z,13.70
2018-03-22T17:22:43.327Z,12.07
2018-03-22T17:25:14.629Z,13.00
2018-03-22T17:27:42.608Z,12.27
2018-03-22T17:30:10.597Z,11.63
2018-03-22T17:32:38.696Z,12.77
2018-03-22T17:35:06.703Z,11.73
2018-03-22T17:37:34.777Z,12.20
2018-03-22T17:40:02.785Z,12.65
2018-03-22T17:42:30.843Z,12.37
2018-03-22T17:44:58.976Z,14.38
2018-03-22T17:47:27.097Z,11.85
2018-03-22T17:49:55.241Z,13.60
2018-03-22T17:52:23.553Z,12.55
2018-03-22T17:54:51.743Z,12.70
2018-03-22T17:57:20.753Z,12.43
2018-03-22T17:59:48.982Z,12.27
2018-03-22T18:02:17.130Z,11.82
2018-03-22T18:04:45.301Z,12.82
2018-03-22T18:07:13.421Z,12.18
2018-03-22T18:09:43.555Z,12.85
2018-03-22T18:12:13.277Z,15.23
2018-03-22T18:14:42.978Z,12.68
2018-03-22T18:17:12.872Z,12.32
2018-03-22T18:19:42.512Z,12.70
2018-03-22T18:22:11.968Z,13.40
2018-03-22T18:24:41.610Z,13.30
2018-03-22T18:27:10.506Z,12.30
2018-03-22T18:29:39.051Z,16.17
2018-03-22T18:32:07.877Z,15.57
2018-03-22T18:34:37.376Z,15.05
2018-03-22T18:37:05.847Z,14.95
2018-03-22T18:39:35.248Z,14.07
2018-03-22T18:42:04.982Z,15.20
2018-03-22T18:44:34.249Z,15.00
2018-03-22T18:47:03.343Z,17.02
2018-03-22T18:49:33.273Z,19.12
2018-03-22T18:52:02.778Z,15.52
2018-03-22T18:54:32.495Z,16.85
2018-03-22T18:57:01.067Z,16.75
2018-03-22T18:59:30.251Z,17.85
2018-03-22T19:01:59.776Z,15.10
2018-03-22T19:04:29.267Z,15.77
2018-03-22T19:06:58.882Z,15.55
2018-03-22T19:09:27.682Z,15.20
2018-03-22T19:11:56.106Z,16.58
2018-03-22T19:14:24.733Z,19.05
2018-03-22T19:16:54.349Z,15.13
2018-03-22T19:19:24.058Z,17.17
2018-03-22T19:21:53.969Z,16.77
2018-03-22T19:24:23.794Z,17.35
2018-03-22T19:26:53.393Z,17.55
2018-03-22T19:29:22.287Z,16.52
2018-03-22T19:31:51.763Z,17.40
2018-03-22T19:34:21.293Z,19.05
2018-03-22T19:36:51.004Z,17.30
2018-03-22T19:39:20.495Z,20.10
2018-03-22T19:41:49.995Z,18.42
2018-03-22T19:44:19.446Z,20.88
2018-03-22T19:46:49.024Z,21.08
2018-03-22T19:49:18.505Z,16.40
2018-03-22T19:51:47.499Z,18.48
2018-03-22T19:54:17.132Z,18.52
2018-03-22T19:56:46.012Z,20.25
2018-03-22T19:59:16.656Z,19.02
2018-03-22T20:01:46.250Z,18.52
2018-03-22T20:04:15.034Z,19.67
2018-03-22T20:06:44.328Z,20.25
2018-03-22T20:09:13.859Z,20.50
2018-03-22T20:11:43.387Z,20.45
2018-03-22T20:14:11.996Z,21.55
2018-03-22T20:16:40.886Z,25.73
2018-03-22T20:19:10.121Z,22.52
2018-03-22T20:21:40.363Z,31.70
2018-03-22T20:24:09.026Z,32.78
2018-03-22T20:26:38.753Z,30.77
2018-03-22T20:29:08.462Z,32.53
2018-03-22T20:31:37.021Z,30.52
2018-03-22T20:34:06.318Z,29.87
2018-03-22T20:36:36.148Z,29.45
2018-03-22T20:39:04.819Z,26.40
2018-03-22T20:41:34.304Z,24.05
2018-03-22T20:44:03.618Z,27.42
2018-03-22T20:46:32.816Z,23.27
2018-03-22T20:49:01.901Z,22.15
2018-03-22T20:51:31.216Z,21.80
2018-03-22T20:54:00.200Z,21.70
2018-03-22T20:56:29.185Z,22.10
2018-03-22T20:58:58.790Z,23.35
2018-03-22T21:01:27.052Z,22.55
2018-03-22T21:03:56.836Z,22.65
2018-03-22T21:06:25.614Z,23.05
2018-03-22T21:08:53.837Z,22.90
2018-03-22T21:11:22.828Z,24.08
2018-03-22T21:13:51.115Z,20.58
2018-03-22T21:16:19.989Z,22.08
2018-03-22T21:18:48.157Z,22.33
2018-03-22T21:21:17.048Z,22.92
2018-03-22T21:23:45.125Z,23.30
2018-03-22T21:26:15.801Z,21.15
2018-03-22T21:28:44.039Z,21.40
2018-03-22T21:31:12.315Z,24.48
2018-03-22T21:33:41.089Z,21.50
2018-03-22T21:36:09.210Z,23.10
2018-03-22T21:38:37.443Z,21.85
2018-03-22T21:41:06.128Z,24.20
2018-03-22T21:43:34.195Z,22.13
2018-03-22T21:46:02.481Z,22.13
2018-03-22T21:48:31.257Z,21.12
2018-03-22T21:51:01.800Z,21.08
2018-03-22T21:53:31.604Z,19.40
2018-03-22T21:55:59.776Z,19.77
2018-03-22T21:58:28.059Z,20.45
2018-03-22T22:00:56.221Z,19.83
2018-03-22T22:03:24.395Z,19.08
2018-03-22T22:05:52.571Z,19.42
2018-03-22T22:08:20.639Z,20.92
2018-03-22T22:10:48.606Z,19.55
2018-03-22T22:13:16.683Z,18.15
2018-03-22T22:15:44.865Z,20.65
2018-03-22T22:18:12.927Z,21.50
2018-03-22T22:20:41.108Z,19.52
2018-03-22T22:23:09.167Z,21.83
2018-03-22T22:25:37.347Z,19.12
2018-03-22T22:28:05.522Z,20.17
2018-03-22T22:30:33.588Z,19.95
2018-03-22T22:33:01.757Z,20.40
2018-03-22T22:35:29.733Z,19.87
2018-03-22T22:37:57.802Z,19.60
2018-03-22T22:40:25.873Z,21.15
2018-03-22T22:42:54.056Z,19.27
2018-03-22T22:45:22.116Z,21.83
2018-03-22T22:47:50.085Z,22.62
2018-03-22T22:50:18.159Z,21.45
2018-03-22T22:52:46.229Z,19.62
2018-03-22T22:55:14.413Z,19.55
2018-03-22T22:57:42.470Z,20.48
2018-03-22T23:00:11.383Z,20.17
2018-03-22T23:02:40.148Z,20.95
2018-03-22T23:05:08.221Z,21.20
2018-03-22T23:07:36.291Z,21.83
2018-03-22T23:10:04.464Z,18.80
2018-03-22T23:12:32.649Z,18.95
2018-03-22T23:15:00.714Z,19.80
2018-03-22T23:17:28.897Z,21.73
2018-03-22T23:19:56.959Z,19.67
2018-03-22T23:22:24.921Z,20.42
2018-03-22T23:24:52.996Z,19.20
2018-03-22T23:27:20.964Z,19.25
2018-03-22T23:29:49.038Z,18.80
2018-03-22T23:32:17.104Z,19.23
2018-03-22T23:34:45.180Z,18.75
2018-03-22T23:37:13.147Z,19.15
2018-03-22T23:39:41.432Z,17.55
2018-03-22T23:42:10.424Z,18.42
2018-03-22T23:44:39.098Z,19.02
2018-03-22T23:47:07.066Z,19.45
2018-03-22T23:49:35.249Z,19.00
2018-03-22T23:52:03.426Z,17.67
2018-03-22T23:54:31.489Z,18.60
2018-03-22T23:56:59.880Z,19.65
2018-03-22T23:59:28.036Z,18.75
